Time;durP1;ratioP1;P1;durP2;ratioP2;P2;SDS_P1;SDS_P2;PMS_P1;PMS_P2;Temp;Humidity;BMP_temperature;BMP_pressure;BME280_temperature;BME280_humidity;BME280_pressure;Samples;Min_cycle;Max_cycle;Signal;HPM_P1;HPM_P2
2022/04/16 00:02:00;;;;;;;9.63;6.80;;;9.80;66.60;;;;;;4943882;29;20171;-79
2022/04/16 00:04:27;;;;;;;9.55;7.43;;;9.80;66.50;;;;;;4943914;29;20040;-79
2022/04/16 00:06:54;;;;;;;7.90;6.32;;;9.80;66.50;;;;;;4940129;29;20123;-79
2022/04/16 00:09:19;;;;;;;8.23;6.07;;;9.80;66.50;;;;;;4938619;29;20048;-79
2022/04/16 00:11:45;;;;;;;11.25;6.65;;;9.80;66.50;;;;;;4936450;29;20090;-79
2022/04/16 00:14:12;;;;;;;9.05;6.55;;;9.80;66.30;;;;;;4953411;29;20055;-79
2022/04/16 00:16:38;;;;;;;7.72;6.25;;;9.70;66.20;;;;;;4951950;29;20047;-79
2022/04/16 00:19:04;;;;;;;7.55;6.10;;;9.80;66.10;;;;;;4936832;29;20436;-79
2022/04/16 00:21:30;;;;;;;7.70;5.88;;;9.90;66.10;;;;;;4937962;29;20058;-79
2022/04/16 00:23:57;;;;;;;8.85;6.43;;;9.80;65.90;;;;;;4919557;29;20523;-79
2022/04/16 00:26:23;;;;;;;7.97;6.60;;;9.80;65.80;;;;;;4938144;29;20132;-79
2022/04/16 00:28:50;;;;;;;10.50;6.55;;;9.80;65.70;;;;;;4938983;29;20126;-77
2022/04/16 00:31:15;;;;;;;8.90;6.43;;;9.80;65.60;;;;;;4936929;29;20440;-78
2022/04/16 00:33:41;;;;;;;7.57;5.82;;;9.80;65.50;;;;;;4920806;29;20083;-78
2022/04/16 00:36:07;;;;;;;7.00;6.05;;;9.80;65.40;;;;;;4938690;29;20130;-78
2022/04/16 00:38:33;;;;;;;8.77;6.30;;;9.80;65.30;;;;;;4947797;29;20144;-79
2022/04/16 00:41:00;;;;;;;8.55;6.60;;;9.80;65.20;;;;;;4954293;29;20051;-78
2022/04/16 00:43:27;;;;;;;7.82;6.00;;;9.80;65.10;;;;;;4952643;29;20042;-78
2022/04/16 00:45:53;;;;;;;8.10;5.82;;;9.80;65.00;;;;;;4954285;29;20038;-77
2022/04/16 00:48:20;;;;;;;7.07;5.80;;;9.80;65.00;;;;;;4924246;29;20087;-78
2022/04/16 00:50:53;;;;;;;7.30;5.70;;;9.70;64.80;;;;;;4919769;29;20047;-78
2022/04/16 00:53:19;;;;;;;8.43;6.10;;;9.80;64.90;;;;;;4931124;29;20056;-78
2022/04/16 00:55:45;;;;;;;7.80;6.13;;;9.70;64.70;;;;;;4955762;29;20043;-79
2022/04/16 00:58:11;;;;;;;9.10;6.10;;;9.80;64.80;;;;;;4951082;29;20098;-79
2022/04/16 01:00:37;;;;;;;10.00;7.30;;;9.70;64.70;;;;;;4936105;29;20067;-80
2022/04/16 01:03:03;;;;;;;9.10;7.15;;;9.70;64.60;;;;;;4926785;29;20109;-78
2022/04/16 01:05:29;;;;;;;8.43;6.95;;;9.70;64.60;;;;;;4923912;29;20508;-77
2022/04/16 01:07:57;;;;;;;10.20;6.68;;;9.70;64.50;;;;;;4945333;29;20039;-78
2022/04/16 01:10:29;;;;;;;7.15;6.18;;;9.60;64.50;;;;;;4922477;29;20079;-79
2022/04/16 01:12:56;;;;;;;8.93;6.53;;;9.60;64.50;;;;;;4925101;29;20047;-79
2022/04/16 01:15:23;;;;;;;9.32;6.45;;;9.60;64.50;;;;;;4930003;29;20043;-79
2022/04/16 01:17:50;;;;;;;9.30;6.40;;;9.60;64.50;;;;;;4921363;29;20476;-79
2022/04/16 01:20:17;;;;;;;8.85;6.53;;;9.60;64.50;;;;;;4937394;29;20054;-79
2022/04/16 01:22:43;;;;;;;7.93;5.78;;;9.60;64.50;;;;;;4922088;29;20051;-79
2022/04/16 01:25:09;;;;;;;7.78;6.38;;;9.50;64.40;;;;;;4937107;29;20488;-79
2022/04/16 01:27:36;;;;;;;8.65;6.78;;;9.60;64.50;;;;;;4920420;29;20126;-79
2022/04/16 01:30:05;;;;;;;9.38;6.80;;;9.50;64.40;;;;;;4926778;29;20032;-79
2022/04/16 01:32:34;;;;;;;7.55;5.97;;;9.40;64.30;;;;;;4937142;29;20076;-79
2022/04/16 01:35:00;;;;;;;9.27;6.60;;;9.40;64.30;;;;;;4955096;29;20065;-79
2022/04/16 01:37:31;;;;;;;8.27;6.60;;;9.40;64.30;;;;;;4954544;29;20098;-78
2022/04/16 01:39:58;;;;;;;8.27;6.18;;;9.40;64.40;;;;;;4953520;29;20114;-79
2022/04/16 01:42:24;;;;;;;7.72;6.55;;;9.30;64.30;;;;;;4939139;29;20052;-78
2022/04/16 01:44:51;;;;;;;8.82;6.95;;;9.30;64.30;;;;;;4948051;29;20038;-79
2022/04/16 01:47:17;;;;;;;9.60;7.18;;;9.30;64.30;;;;;;4937200;29;20044;-79
2022/04/16 01:49:43;;;;;;;7.55;6.32;;;9.30;64.40;;;;;;4934495;29;20353;-79
2022/04/16 01:52:09;;;;;;;13.68;8.20;;;9.20;64.30;;;;;;4953470;29;20057;-79
2022/04/16 01:54:36;;;;;;;9.18;6.95;;;9.30;64.40;;;;;;4939016;29;20131;-79
2022/04/16 01:57:02;;;;;;;8.70;6.88;;;9.20;64.40;;;;;;4920696;29;20088;-79
2022/04/16 01:59:29;;;;;;;8.68;7.43;;;9.20;64.40;;;;;;4935005;29;20055;-79
2022/04/16 02:01:56;;;;;;;10.27;7.70;;;9.20;64.40;;;;;;4955071;29;20051;-79
2022/04/16 02:04:23;;;;;;;8.77;7.03;;;9.10;64.30;;;;;;4940057;29;20058;-79
2022/04/16 02:06:52;;;;;;;9.13;6.85;;;9.10;64.40;;;;;;4929078;29;20048;-79
2022/04/16 02:09:17;;;;;;;9.43;7.10;;;9.00;64.40;;;;;;4950356;29;20134;-79
2022/04/16 02:11:44;;;;;;;9.55;7.13;;;9.10;64.50;;;;;;4958345;29;20134;-79
2022/04/16 02:14:09;;;;;;;12.82;8.15;;;9.00;64.40;;;;;;4949999;29;20456;-79
2022/04/16 02:16:35;;;;;;;9.95;7.43;;;8.90;64.40;;;;;;4942586;29;20071;-79
2022/04/16 02:19:01;;;;;;;10.65;7.35;;;8.90;64.40;;;;;;4940853;29;20047;-79
2022/04/16 02:21:32;;;;;;;9.32;7.40;;;8.90;64.50;;;;;;4926176;29;20081;-79
2022/04/16 02:23:58;;;;;;;9.18;6.97;;;8.90;64.50;;;;;;4940384;29;20514;-79
2022/04/16 02:26:26;;;;;;;8.63;7.63;;;8.90;64.60;;;;;;4940978;29;20079;-79
2022/04/16 02:28:51;;;;;;;9.32;7.38;;;8.90;64.60;;;;;;4934427;29;20047;-79
2022/04/16 02:31:17;;;;;;;12.63;9.07;;;8.80;64.60;;;;;;4939217;29;20051;-79
2022/04/16 02:33:43;;;;;;;9.85;8.32;;;8.80;64.70;;;;;;4940497;29;20124;-78
2022/04/16 02:36:09;;;;;;;10.13;8.00;;;8.80;64.70;;;;;;4921579;29;20046;-78
2022/04/16 02:38:35;;;;;;;12.23;8.23;;;8.80;64.80;;;;;;4942412;29;20056;-78
2022/04/16 02:41:01;;;;;;;10.77;7.82;;;8.70;64.80;;;;;;4951637;29;20047;-78
2022/04/16 02:43:26;;;;;;;11.15;8.18;;;8.70;64.80;;;;;;4938488;29;20562;-78
2022/04/16 02:48:36;;;;;;;11.60;8.57;;;8.70;65.00;;;;;;4939676;29;20059;-78
2022/04/16 02:51:02;;;;;;;9.75;7.95;;;8.70;65.10;;;;;;4935251;29;20051;-79
2022/04/16 02:53:29;;;;;;;10.95;8.35;;;8.70;65.20;;;;;;4951009;29;20122;-79
2022/04/16 02:55:55;;;;;;;14.32;10.45;;;8.60;65.30;;;;;;4954772;29;20050;-77
2022/04/16 02:58:22;;;;;;;13.15;10.23;;;8.70;65.50;;;;;;4957220;29;20114;-79
2022/04/16 03:00:48;;;;;;;12.30;9.45;;;8.60;65.50;;;;;;4948553;29;20051;-77
2022/04/16 03:03:15;;;;;;;13.10;9.52;;;8.70;65.70;;;;;;4941442;29;20057;-78
2022/04/16 03:05:41;;;;;;;12.15;10.13;;;8.60;65.70;;;;;;4942474;29;20068;-77
2022/04/16 03:08:12;;;;;;;13.35;9.57;;;8.60;65.80;;;;;;4920033;29;20047;-78
2022/04/16 03:10:39;;;;;;;15.75;12.15;;;8.50;65.80;;;;;;4955685;29;20059;-78
2022/04/16 03:13:05;;;;;;;15.07;11.15;;;8.50;65.90;;;;;;4957230;29;20093;-78
2022/04/16 03:18:14;;;;;;;13.40;10.68;;;8.50;66.10;;;;;;4957115;29;20384;-79
2022/04/16 03:20:42;;;;;;;12.80;9.57;;;8.50;66.20;;;;;;4937873;29;20103;-79
2022/04/16 03:23:09;;;;;;;16.17;12.27;;;8.50;66.30;;;;;;4955353;29;20091;-79
2022/04/16 03:25:39;;;;;;;15.90;11.60;;;8.50;66.40;;;;;;4928097;29;20055;-79
2022/04/16 03:28:04;;;;;;;13.68;10.25;;;8.50;66.60;;;;;;4949425;29;20118;-78
2022/04/16 03:30:30;;;;;;;13.68;11.07;;;8.40;66.50;;;;;;4936627;29;20146;-78
2022/04/16 03:32:55;;;;;;;12.50;10.13;;;8.40;66.60;;;;;;4955297;29;20094;-78
2022/04/16 03:35:23;;;;;;;12.95;10.55;;;8.40;66.60;;;;;;4931904;29;20499;-78
2022/04/16 03:37:49;;;;;;;13.57;10.23;;;8.40;66.70;;;;;;4943071;29;20070;-78
2022/04/16 03:40:15;;;;;;;11.23;9.32;;;8.40;66.70;;;;;;4949860;29;20047;-78
2022/04/16 03:42:45;;;;;;;12.35;9.23;;;8.40;66.70;;;;;;4937709;29;20127;-78
2022/04/16 03:45:20;;;;;;;14.80;9.70;;;8.40;66.70;;;;;;4945504;29;20484;-78
2022/04/16 03:47:48;;;;;;;11.55;9.02;;;8.40;66.70;;;;;;4938497;29;20047;-78
2022/04/16 03:50:14;;;;;;;13.65;10.88;;;8.40;66.70;;;;;;4926008;29;20051;-78
2022/04/16 03:52:43;;;;;;;16.95;12.35;;;8.40;66.70;;;;;;4955770;29;20171;-78
2022/04/16 04:01:03;;;;;;;17.23;12.52;;;8.40;66.90;;;;;;4852121;29;20140;-78
2022/04/16 04:03:30;;;;;;;19.98;14.60;;;8.40;67.10;;;;;;4861452;29;20435;-78
2022/04/16 04:05:57;;;;;;;22.27;16.40;;;8.40;67.20;;;;;;4861308;29;20088;-79
2022/04/16 04:08:23;;;;;;;19.77;16.23;;;8.40;67.40;;;;;;4844231;29;20058;-79
2022/04/16 04:10:49;;;;;;;17.52;13.55;;;8.40;67.60;;;;;;4859422;29;20445;-79
2022/04/16 04:13:16;;;;;;;19.77;14.68;;;8.40;67.80;;;;;;4844399;29;20061;-79
2022/04/16 04:15:42;;;;;;;19.70;15.43;;;8.40;67.90;;;;;;4858540;29;20128;-77
2022/04/16 04:18:08;;;;;;;21.77;15.98;;;8.30;68.10;;;;;;4859387;29;20073;-77
2022/04/16 04:20:36;;;;;;;23.40;16.70;;;8.30;68.30;;;;;;4843660;29;20076;-77
2022/04/16 04:23:03;;;;;;;25.58;18.88;;;8.30;68.40;;;;;;4844189;29;20149;-77
2022/04/16 04:25:29;;;;;;;22.73;18.35;;;8.20;68.60;;;;;;4859190;29;20047;-77
2022/04/16 04:27:55;;;;;;;24.13;18.15;;;8.20;68.70;;;;;;4857988;29;20061;-78
2022/04/16 04:30:21;;;;;;;24.13;18.98;;;8.10;68.90;;;;;;4859245;29;20106;-78
2022/04/16 04:32:46;;;;;;;24.83;18.25;;;8.10;69.20;;;;;;4859335;29;20053;-78
2022/04/16 04:35:12;;;;;;;27.63;20.52;;;8.10;69.40;;;;;;4890179;29;20460;-77
2022/04/16 04:37:38;;;;;;;26.48;19.60;;;8.10;69.70;;;;;;4943208;29;20047;-78
2022/04/16 04:40:05;;;;;;;27.02;20.80;;;8.00;69.80;;;;;;4934380;29;20435;-78
2022/04/16 04:42:35;;;;;;;28.20;20.77;;;8.00;70.00;;;;;;4950512;29;20047;-78
2022/04/16 04:45:09;;;;;;;26.30;18.85;;;7.90;70.40;;;;;;4938871;29;20495;-78
2022/04/16 04:47:35;;;;;;;27.83;21.07;;;7.90;70.60;;;;;;4951162;29;20047;-78
2022/04/16 04:50:00;;;;;;;25.98;19.65;;;7.90;70.50;;;;;;4938016;29;20530;-78
2022/04/16 04:52:26;;;;;;;31.25;21.88;;;7.80;70.80;;;;;;4938001;29;20077;-78
2022/04/16 04:54:53;;;;;;;30.20;22.52;;;7.80;71.10;;;;;;4949659;29;20087;-78
2022/04/16 04:57:19;;;;;;;31.73;23.05;;;7.80;71.30;;;;;;4950553;29;20123;-78
2022/04/16 04:59:45;;;;;;;31.08;22.08;;;7.70;71.70;;;;;;4942453;29;20130;-78
2022/04/16 05:02:10;;;;;;;34.72;24.25;;;7.60;71.80;;;;;;4949711;29;20475;-78
2022/04/16 05:04:36;;;;;;;30.95;22.98;;;7.60;72.30;;;;;;4936635;29;20051;-78
2022/04/16 05:07:03;;;;;;;29.20;22.45;;;7.60;72.60;;;;;;4939479;29;20388;-78
2022/04/16 05:09:29;;;;;;;33.33;22.88;;;7.50;72.60;;;;;;4937483;29;20058;-78
2022/04/16 05:11:55;;;;;;;31.10;21.83;;;7.50;72.90;;;;;;4921508;29;20048;-78
2022/04/16 05:14:21;;;;;;;31.02;22.23;;;7.50;72.90;;;;;;4936185;29;20062;-77
2022/04/16 05:16:47;;;;;;;31.52;21.27;;;7.50;74.00;;;;;;4938289;29;20439;-78
2022/04/16 05:19:14;;;;;;;29.23;21.58;;;7.50;73.50;;;;;;4921085;29;20047;-78
2022/04/16 05:21:40;;;;;;;32.53;22.05;;;7.50;73.50;;;;;;4922058;29;20031;-77
2022/04/16 05:24:06;;;;;;;27.30;20.88;;;7.50;73.70;;;;;;4936235;29;20055;-78
2022/04/16 05:26:33;;;;;;;28.90;21.27;;;7.60;74.00;;;;;;4938521;29;20047;-78
2022/04/16 05:28:58;;;;;;;28.73;20.75;;;7.60;74.00;;;;;;4954326;29;20721;-78
2022/04/16 05:31:26;;;;;;;30.77;21.63;;;7.50;74.10;;;;;;4931924;29;20052;-77
2022/04/16 05:36:49;;;;;;;27.98;19.77;;;7.60;74.60;;;;;;4865249;29;20067;-77
2022/04/16 05:39:16;;;;;;;28.08;20.55;;;7.60;74.20;;;;;;4867539;29;20059;-78
2022/04/16 05:41:42;;;;;;;24.75;17.98;;;7.70;74.20;;;;;;4879976;29;20053;-77
2022/04/16 05:44:07;;;;;;;28.63;20.52;;;7.70;74.10;;;;;;4865285;29;20049;-77
2022/04/16 05:46:33;;;;;;;27.98;19.10;;;7.80;74.10;;;;;;4865216;29;20061;-77
2022/04/16 05:48:59;;;;;;;26.73;18.52;;;7.80;73.90;;;;;;4865131;29;20084;-77
2022/04/16 05:51:25;;;;;;;23.15;17.25;;;7.80;74.30;;;;;;4880390;29;20067;-78
2022/04/16 05:53:52;;;;;;;24.90;17.30;;;7.90;73.90;;;;;;4879715;29;20495;-78
2022/04/16 05:56:18;;;;;;;25.50;16.95;;;7.90;73.70;;;;;;4880404;29;20098;-77
2022/04/16 05:58:44;;;;;;;24.98;17.20;;;7.90;73.60;;;;;;4879627;29;20049;-78
2022/04/16 06:01:11;;;;;;;23.85;17.05;;;7.90;73.40;;;;;;4880661;29;20053;-78
2022/04/16 06:03:39;;;;;;;24.52;17.40;;;7.90;73.30;;;;;;4863594;29;20057;-77
2022/04/16 06:06:05;;;;;;;24.80;17.75;;;8.00;73.40;;;;;;4880531;29;20057;-78
2022/04/16 06:08:31;;;;;;;22.83;17.70;;;8.00;73.30;;;;;;4879647;29;20045;-77
2022/04/16 06:10:57;;;;;;;25.45;17.25;;;8.00;73.30;;;;;;4880458;29;20045;-78
2022/04/16 06:13:22;;;;;;;26.92;17.95;;;8.10;73.40;;;;;;4911997;29;20059;-78
2022/04/16 06:15:48;;;;;;;21.60;16.08;;;8.10;73.40;;;;;;4934821;29;20083;-78
2022/04/16 06:18:13;;;;;;;27.85;17.90;;;8.10;73.30;;;;;;4927776;29;20496;-78
2022/04/16 06:20:39;;;;;;;22.85;15.80;;;8.10;73.10;;;;;;4903024;29;20048;-78
2022/04/16 06:23:06;;;;;;;23.48;16.17;;;8.20;73.10;;;;;;4905037;29;20048;-77
2022/04/16 06:25:32;;;;;;;28.10;17.08;;;8.20;72.90;;;;;;4920597;29;20044;-77
2022/04/16 06:27:57;;;;;;;19.77;15.40;;;8.30;73.00;;;;;;4926055;29;20404;-78
2022/04/16 06:30:23;;;;;;;20.42;16.35;;;8.30;73.00;;;;;;4899432;29;20095;-77
2022/04/16 06:32:49;;;;;;;21.63;14.88;;;8.40;73.00;;;;;;4916012;29;20087;-79
2022/04/16 06:35:15;;;;;;;21.90;15.05;;;8.40;72.80;;;;;;4924576;29;20429;-78
2022/04/16 06:37:44;;;;;;;21.90;15.00;;;8.50;72.60;;;;;;4919810;29;20036;-78
2022/04/16 06:40:12;;;;;;;20.25;14.48;;;8.50;72.30;;;;;;4932457;29;20047;-79
2022/04/16 06:42:39;;;;;;;20.75;15.02;;;8.60;72.20;;;;;;4912706;29;20056;-79
2022/04/16 06:45:06;;;;;;;20.73;15.10;;;8.70;72.30;;;;;;4929962;29;20143;-79
2022/04/16 06:47:32;;;;;;;17.58;14.18;;;8.70;72.10;;;;;;4925768;29;20074;-79
2022/04/16 06:49:58;;;;;;;18.02;13.32;;;8.80;71.90;;;;;;4924144;29;20049;-79
2022/04/16 06:52:24;;;;;;;20.35;14.13;;;8.90;71.70;;;;;;4935444;29;20099;-77
2022/04/16 06:54:50;;;;;;;20.00;14.80;;;8.90;71.40;;;;;;4936758;29;20099;-78
2022/04/16 06:57:16;;;;;;;19.35;13.60;;;9.00;71.10;;;;;;4928134;29;20044;-78
2022/04/16 06:59:42;;;;;;;18.50;13.52;;;9.00;70.70;;;;;;4902399;29;20044;-78
2022/04/16 07:02:10;;;;;;;19.85;13.60;;;9.10;70.50;;;;;;4929954;29;20050;-78
2022/04/16 07:04:37;;;;;;;19.25;14.20;;;9.20;70.40;;;;;;4921193;29;20044;-78
2022/04/16 07:07:03;;;;;;;19.83;13.73;;;9.20;70.40;;;;;;4936978;29;20054;-78
2022/04/16 07:09:29;;;;;;;17.77;13.32;;;9.30;70.20;;;;;;4919454;29;20139;-78
2022/04/16 07:11:55;;;;;;;18.05;13.00;;;9.30;70.20;;;;;;4908005;29;20176;-78
2022/04/16 07:14:21;;;;;;;19.95;14.52;;;9.40;70.00;;;;;;4926907;29;20048;-78
2022/04/16 07:16:47;;;;;;;20.08;13.63;;;9.50;70.00;;;;;;4907424;29;20143;-79
2022/04/16 07:19:13;;;;;;;18.67;12.90;;;9.60;69.70;;;;;;4902980;29;20063;-78
2022/04/16 07:21:39;;;;;;;17.05;13.75;;;9.70;69.40;;;;;;4927852;29;20043;-86
2022/04/16 07:24:04;;;;;;;18.52;13.18;;;9.80;69.10;;;;;;4932194;29;20040;-83
2022/04/16 07:26:30;;;;;;;17.20;12.35;;;9.90;68.90;;;;;;4928698;29;20397;-83
2022/04/16 07:28:56;;;;;;;16.48;11.82;;;10.10;68.30;;;;;;4924677;29;20476;-80
2022/04/16 07:31:22;;;;;;;19.20;12.70;;;10.20;67.60;;;;;;4926080;29;20052;-80
2022/04/16 07:33:48;;;;;;;16.17;11.23;;;10.30;67.80;;;;;;4924184;29;20118;-79
2022/04/16 07:36:13;;;;;;;15.95;11.30;;;10.40;67.20;;;;;;4923534;29;20099;-80
2022/04/16 07:38:39;;;;;;;17.77;11.73;;;10.60;66.60;;;;;;4933845;29;20545;-79
2022/04/16 07:41:04;;;;;;;15.80;12.00;;;10.60;66.10;;;;;;4903460;29;20114;-80
2022/04/16 07:43:30;;;;;;;17.88;12.10;;;10.70;65.80;;;;;;4924821;29;20048;-80
2022/04/16 07:45:56;;;;;;;16.95;12.57;;;10.80;65.20;;;;;;4915876;29;20099;-79
2022/04/16 07:48:22;;;;;;;15.57;11.48;;;10.90;65.20;;;;;;4921640;29;20148;-80
2022/04/16 07:50:48;;;;;;;17.10;12.45;;;11.00;65.40;;;;;;4907285;29;20068;-82
2022/04/16 07:53:14;;;;;;;17.15;12.10;;;11.10;64.80;;;;;;4915454;29;20127;-81
2022/04/16 07:55:39;;;;;;;19.38;12.88;;;11.10;64.20;;;;;;4934403;29;20512;-82
2022/04/16 07:58:05;;;;;;;16.17;11.93;;;11.10;64.30;;;;;;4926896;29;20048;-82
2022/04/16 08:00:31;;;;;;;15.70;12.10;;;11.10;64.00;;;;;;4918533;29;20047;-81
2022/04/16 08:02:56;;;;;;;15.50;12.00;;;11.20;63.90;;;;;;4954208;29;20097;-81
2022/04/16 08:05:22;;;;;;;14.73;11.23;;;11.20;63.80;;;;;;4943647;29;20047;-82
2022/04/16 08:07:49;;;;;;;16.08;11.73;;;11.30;63.90;;;;;;4924359;29;20038;-82
2022/04/16 08:10:15;;;;;;;16.70;11.68;;;11.40;63.60;;;;;;4929031;29;20043;-83
2022/04/16 08:12:41;;;;;;;15.10;10.98;;;11.50;63.90;;;;;;4948836;29;20174;-82
2022/04/16 08:15:09;;;;;;;17.73;12.15;;;11.50;63.70;;;;;;4923343;29;20059;-82
2022/04/16 08:17:37;;;;;;;13.70;10.70;;;11.50;63.60;;;;;;4954608;29;20051;-83
2022/04/16 08:20:04;;;;;;;14.75;11.38;;;11.90;63.90;;;;;;4951344;29;20392;-82
2022/04/16 08:22:32;;;;;;;12.32;9.77;;;11.70;63.20;;;;;;4945863;29;20039;-82
2022/04/16 08:27:48;;;;;;;12.70;9.43;;;12.00;61.00;;;;;;4904873;29;20105;-82
2022/04/16 08:30:15;;;;;;;14.18;10.20;;;12.00;60.60;;;;;;4905763;29;20079;-81
2022/04/16 08:32:45;;;;;;;13.57;9.80;;;12.00;60.60;;;;;;4916999;29;20135;-82
2022/04/16 08:35:12;;;;;;;12.60;9.90;;;12.20;60.50;;;;;;4917850;29;20103;-82
2022/04/16 08:37:38;;;;;;;13.13;9.32;;;12.30;60.00;;;;;;4926245;29;20477;-82
2022/04/16 08:40:05;;;;;;;13.57;10.05;;;12.40;58.90;;;;;;4916133;29;20142;-80
2022/04/16 08:42:33;;;;;;;12.57;9.60;;;12.40;59.00;;;;;;4929405;29;20070;-81
2022/04/16 08:45:00;;;;;;;12.25;9.13;;;12.40;59.30;;;;;;4924436;29;20090;-83
2022/04/16 08:47:25;;;;;;;13.40;9.23;;;12.50;60.10;;;;;;4918600;29;20539;-83
2022/04/16 08:49:51;;;;;;;11.85;8.70;;;12.50;58.80;;;;;;4920706;29;20050;-82
2022/04/16 08:52:18;;;;;;;11.63;8.30;;;12.50;58.30;;;;;;4928999;29;20131;-82
2022/04/16 08:54:43;;;;;;;10.27;7.97;;;12.60;58.40;;;;;;4929510;29;20127;-81
2022/04/16 08:57:09;;;;;;;10.80;8.82;;;12.70;58.40;;;;;;4919444;29;20138;-81
2022/04/16 08:59:35;;;;;;;12.00;8.57;;;12.60;57.90;;;;;;4930309;29;20091;-82
2022/04/16 09:02:01;;;;;;;11.13;8.15;;;12.60;58.10;;;;;;4899574;29;20106;-83
2022/04/16 09:04:31;;;;;;;11.48;8.10;;;12.70;57.50;;;;;;4913317;29;20051;-83
2022/04/16 09:06:57;;;;;;;9.80;7.40;;;12.70;57.50;;;;;;4950926;28;20047;-82
2022/04/16 09:09:24;;;;;;;11.30;7.22;;;12.70;57.90;;;;;;4936674;29;20072;-83
2022/04/16 09:11:49;;;;;;;8.40;7.13;;;12.80;57.50;;;;;;4946113;29;20090;-81
2022/04/16 09:14:15;;;;;;;9.02;7.07;;;12.90;57.10;;;;;;4952379;29;20079;-83
2022/04/16 09:16:42;;;;;;;9.52;6.57;;;13.30;56.80;;;;;;4958460;29;20062;-83
2022/04/16 09:19:21;;;;;;;9.50;6.63;;;13.00;56.40;;;;;;4952990;29;20051;-82
2022/04/16 09:21:47;;;;;;;9.95;6.68;;;13.10;55.80;;;;;;4952670;29;20066;-82
2022/04/16 09:24:12;;;;;;;10.05;6.30;;;13.20;55.10;;;;;;4940859;29;20074;-83
2022/04/16 09:26:39;;;;;;;8.07;5.35;;;13.60;55.30;;;;;;4956782;29;20039;-80
2022/04/16 09:29:09;;;;;;;6.97;4.82;;;13.30;54.40;;;;;;4940742;29;20487;-80
2022/04/16 09:31:38;;;;;;;7.28;4.38;;;13.20;53.90;;;;;;4943654;29;20051;-80
2022/04/16 09:34:04;;;;;;;7.90;4.57;;;13.20;53.20;;;;;;4940892;29;20529;-80
2022/04/16 09:36:30;;;;;;;7.25;4.80;;;13.30;52.70;;;;;;4935826;29;20051;-79
2022/04/16 09:39:06;;;;;;;8.98;4.70;;;13.50;52.00;;;;;;4926810;29;20505;-79
2022/04/16 09:41:36;;;;;;;7.57;4.68;;;13.50;51.40;;;;;;4955112;29;20103;-79
2022/04/16 09:44:02;;;;;;;9.18;4.07;;;13.60;52.60;;;;;;4956963;29;20048;-80
2022/04/16 09:46:30;;;;;;;5.65;4.13;;;13.70;52.10;;;;;;4940554;29;20043;-79
2022/04/16 09:49:03;;;;;;;7.57;4.50;;;13.80;50.60;;;;;;4939276;29;20044;-80
2022/04/16 09:51:35;;;;;;;5.90;3.47;;;13.80;50.20;;;;;;4942751;29;20055;-80
2022/04/16 09:54:05;;;;;;;4.38;2.88;;;13.80;50.60;;;;;;4937534;29;20682;-80
2022/04/16 09:56:36;;;;;;;4.25;2.63;;;13.90;49.80;;;;;;4941423;29;20399;-80
2022/04/16 09:59:04;;;;;;;5.00;3.05;;;14.00;48.00;;;;;;4930986;29;20046;-79
2022/04/16 10:01:32;;;;;;;5.18;2.92;;;14.00;47.20;;;;;;4938103;29;20406;-80
2022/04/16 10:03:58;;;;;;;5.10;2.88;;;14.00;46.80;;;;;;4938773;29;20063;-78
2022/04/16 10:06:24;;;;;;;4.47;2.67;;;14.00;46.40;;;;;;4943865;29;20514;-79
2022/04/16 10:08:50;;;;;;;5.40;2.60;;;13.90;46.60;;;;;;4947682;29;20537;-78
2022/04/16 10:11:32;;;;;;;3.55;2.38;;;14.00;47.40;;;;;;4939268;29;20074;-78
2022/04/16 10:14:12;;;;;;;3.53;2.25;;;14.10;47.00;;;;;;4928723;29;20052;-79
2022/04/16 10:16:53;;;;;;;3.95;2.13;;;14.30;46.70;;;;;;4935847;28;20043;-78
2022/04/16 10:19:18;;;;;;;4.97;2.85;;;14.30;46.50;;;;;;4958496;29;20047;-77
2022/04/16 10:21:44;;;;;;;3.80;2.38;;;14.40;45.70;;;;;;4921780;29;20138;-78
2022/04/16 10:24:10;;;;;;;4.80;2.45;;;14.40;44.80;;;;;;4939973;29;20047;-78
2022/04/16 10:26:39;;;;;;;4.78;2.90;;;14.40;44.90;;;;;;4925591;29;20108;-79
2022/04/16 10:29:05;;;;;;;4.75;1.98;;;14.50;45.80;;;;;;4929985;29;20484;-78
2022/04/16 10:31:33;;;;;;;3.65;2.60;;;14.50;44.70;;;;;;4948969;29;20038;-79
2022/04/16 10:34:08;;;;;;;4.22;2.60;;;14.70;43.20;;;;;;4947502;29;20055;-79
2022/04/16 10:36:37;;;;;;;;;;;14.50;44.00;;;;;;4941622;29;20515;-79
2022/04/16 10:39:28;;;;;;;3.35;2.35;;;14.40;44.40;;;;;;4936658;29;19922;-78
2022/04/16 10:41:59;;;;;;;3.78;2.17;;;14.40;45.50;;;;;;4943793;29;20054;-78
2022/04/16 10:44:26;;;;;;;3.20;1.85;;;14.60;44.50;;;;;;4932034;29;20059;-78
2022/04/16 10:46:54;;;;;;;5.18;2.00;;;14.50;44.80;;;;;;4946373;29;20047;-77
2022/04/16 10:49:24;;;;;;;3.92;2.15;;;14.60;44.80;;;;;;4946056;29;20492;-79
2022/04/16 10:51:55;;;;;;;12.77;3.35;;;14.60;44.90;;;;;;4926212;29;20040;-78
2022/04/16 10:54:32;;;;;;;3.33;1.55;;;14.60;44.90;;;;;;4945857;29;20067;-83
2022/04/16 10:56:59;;;;;;;2.55;1.67;;;14.70;45.60;;;;;;4929654;29;20456;-84
2022/04/16 10:59:37;;;;;;;2.70;1.50;;;14.70;44.60;;;;;;4949380;29;20160;-85
2022/04/16 11:02:21;;;;;;;3.03;1.60;;;14.70;41.90;;;;;;4945873;29;20087;-84
2022/04/16 11:05:02;;;;;;;3.30;1.10;;;14.60;42.60;;;;;;4937410;29;20051;-91
2022/04/16 11:07:30;;;;;;;3.08;1.50;;;14.50;41.80;;;;;;4951790;29;20403;-87
2022/04/16 11:09:57;;;;;;;2.28;0.90;;;14.50;41.90;;;;;;4925842;29;20091;-95
2022/04/16 11:12:24;;;;;;;3.50;1.17;;;14.50;41.50;;;;;;4928894;29;20043;-92
2022/04/16 11:14:50;;;;;;;1.83;1.20;;;14.50;41.90;;;;;;4931158;29;20055;-90
2022/04/16 11:17:17;;;;;;;2.08;1.30;;;14.60;41.10;;;;;;4940594;29;20047;-91
2022/04/16 11:19:44;;;;;;;1.85;0.90;;;14.60;39.90;;;;;;4950363;29;20048;-90
2022/04/16 11:22:11;;;;;;;2.17;1.50;;;14.80;39.70;;;;;;4935945;29;20035;-89
2022/04/16 11:24:37;;;;;;;2.47;1.65;;;14.80;39.80;;;;;;4936850;29;20543;-92
2022/04/16 11:34:14;;;;;;;2.35;1.27;;;14.80;37.30;;;;;;4940060;29;20046;-89
2022/04/16 11:36:00;;;;;;;10.07;1.85;;;14.90;37.50;;;;;;4940273;29;20082;-90
2022/04/16 11:38:30;;;;;;;2.78;1.15;;;15.00;35.50;;;;;;4938800;29;20051;-91
2022/04/16 11:41:35;;;;;;;3.58;1.08;;;15.00;35.40;;;;;;4927755;29;20486;-90
2022/04/16 11:44:02;;;;;;;1.25;0.77;;;15.10;34.40;;;;;;4930147;29;20042;-90
2022/04/16 11:46:29;;;;;;;1.33;0.75;;;15.20;33.60;;;;;;4905970;29;20043;-89
2022/04/16 11:48:58;;;;;;;1.85;1.00;;;15.50;33.20;;;;;;4936885;29;20047;-90
2022/04/16 11:51:24;;;;;;;1.88;1.00;;;15.60;33.70;;;;;;4946719;29;20060;-94
2022/04/16 11:53:52;;;;;;;1.95;0.95;;;15.20;34.90;;;;;;4939182;29;20042;-92
2022/04/16 11:56:19;;;;;;;1.98;0.80;;;15.20;35.10;;;;;;4947501;29;20055;-90
2022/04/16 11:58:49;;;;;;;1.92;1.10;;;15.10;34.10;;;;;;4956307;29;20491;-88
2022/04/16 12:01:20;;;;;;;0.95;0.73;;;15.00;34.50;;;;;;4924118;29;20046;-93
2022/04/16 12:03:45;;;;;;;1.90;0.80;;;15.00;33.10;;;;;;4930044;29;20472;-93
2022/04/16 12:06:13;;;;;;;1.58;0.75;;;15.00;33.90;;;;;;4942202;29;20046;-92
2022/04/16 12:08:42;;;;;;;1.52;0.80;;;15.30;34.40;;;;;;4924995;29;20535;-91
2022/04/16 12:11:09;;;;;;;3.13;0.68;;;14.90;33.90;;;;;;4918973;29;20047;-92
2022/04/16 12:13:41;;;;;;;1.15;0.70;;;15.00;32.80;;;;;;4932826;29;20126;-90
2022/04/16 12:16:09;;;;;;;1.73;0.70;;;15.00;30.30;;;;;;4946514;29;20075;-91
2022/04/16 12:18:40;;;;;;;1.58;0.75;;;15.10;30.00;;;;;;4935702;29;20044;-92
2022/04/16 12:21:17;;;;;;;2.40;1.00;;;15.10;31.30;;;;;;4937121;29;20059;-94
2022/04/16 12:23:45;;;;;;;1.77;1.02;;;15.10;32.70;;;;;;4955145;29;20051;-94
2022/04/16 12:30:06;;;;;;;1.52;0.85;;;15.00;31.30;;;;;;4955541;29;20046;-94
2022/04/16 12:32:32;;;;;;;1.30;0.70;;;14.80;32.20;;;;;;4948869;29;20091;-94
2022/04/16 12:34:57;;;;;;;1.42;0.88;;;14.70;32.10;;;;;;4969297;29;20055;-92
2022/04/16 12:37:23;;;;;;;1.52;0.70;;;14.70;32.60;;;;;;4955151;29;20044;-93
2022/04/16 12:39:49;;;;;;;1.83;0.80;;;14.70;32.40;;;;;;4948347;28;20028;-95
2022/04/16 12:42:35;;;;;;;1.65;0.70;;;14.70;31.30;;;;;;4939845;29;20047;-92
2022/04/16 12:45:00;;;;;;;1.98;0.70;;;14.60;30.30;;;;;;4925780;29;20079;-96
2022/04/16 12:47:26;;;;;;;2.75;1.20;;;14.60;30.90;;;;;;4923049;29;20070;-93
2022/04/16 12:49:53;;;;;;;1.88;0.70;;;14.70;31.90;;;;;;4922875;29;20481;-91
2022/04/16 12:52:19;;;;;;;3.45;1.10;;;14.60;31.60;;;;;;4953101;29;20094;-95
2022/04/16 12:54:44;;;;;;;3.10;1.35;;;14.60;31.10;;;;;;4927153;29;20051;-96
2022/04/16 13:00:51;;;;;;;3.33;1.17;;;14.60;33.30;;;;;;4945227;29;20094;-94
2022/04/16 13:03:17;;;;;;;2.25;1.15;;;14.70;35.40;;;;;;4942867;29;20051;-93
2022/04/16 13:05:43;;;;;;;1.10;0.75;;;14.60;34.20;;;;;;4928817;29;20064;-92
2022/04/16 13:08:09;;;;;;;3.42;0.80;;;14.70;32.80;;;;;;4923690;29;20545;-88
2022/04/16 13:10:35;;;;;;;2.47;0.88;;;14.70;32.20;;;;;;4952846;29;20039;-87
2022/04/16 13:13:01;;;;;;;1.52;1.08;;;14.70;32.10;;;;;;4942731;29;20047;-88
2022/04/16 13:15:27;;;;;;;2.30;1.00;;;14.60;31.60;;;;;;4937370;29;20439;-88